createdAt,value
2019-04-30T00:00:59.006Z,4.00
2019-04-30T00:01:59.122Z,0.00
2019-04-30T00:02:58.956Z,0.00
2019-04-30T00:03:59.370Z,0.00
2019-04-30T00:04:58.906Z,0.00
2019-04-30T00:05:58.881Z,0.00
2019-04-30T00:06:58.880Z,0.00
2019-04-30T00:07:58.832Z,0.00
2019-04-30T00:08:58.807Z,0.00
2019-04-30T00:09:58.782Z,0.00
2019-04-30T00:10:58.756Z,0.00
2019-04-30T00:12:01.331Z,0.00
2019-04-30T00:12:58.714Z,0.00
2019-04-30T00:13:59.057Z,0.00
2019-04-30T00:14:58.679Z,0.00
2019-04-30T00:16:01.579Z,0.00
2019-04-30T00:16:58.607Z,0.00
2019-04-30T00:18:01.840Z,0.00
2019-04-30T00:19:00.825Z,0.00
2019-04-30T00:20:00.034Z,0.00
2019-04-30T00:20:58.510Z,0.00
2019-04-30T00:22:00.494Z,0.00
2019-04-30T00:22:58.459Z,0.00
2019-04-30T00:24:00.747Z,0.00
2019-04-30T00:24:58.410Z,0.00
2019-04-30T00:26:04.972Z,0.00
2019-04-30T00:26:58.359Z,0.00
2019-04-30T00:28:00.189Z,0.00
2019-04-30T00:28:58.310Z,0.00
2019-04-30T00:30:00.237Z,0.00
2019-04-30T00:30:58.259Z,0.00
2019-04-30T00:32:04.610Z,0.00
2019-04-30T00:32:58.211Z,0.00
2019-04-30T00:34:01.379Z,0.00
2019-04-30T00:34:58.160Z,0.00
2019-04-30T00:35:58.223Z,0.00
2019-04-30T00:36:58.112Z,0.00
2019-04-30T00:38:00.231Z,0.00
2019-04-30T00:38:58.066Z,0.00
2019-04-30T00:39:58.037Z,0.00
2019-04-30T00:41:01.912Z,0.00
2019-04-30T00:41:57.986Z,0.00
2019-04-30T00:43:00.203Z,0.00
2019-04-30T00:43:57.937Z,0.00
2019-04-30T00:44:59.630Z,0.00
2019-04-30T00:45:57.887Z,0.00
2019-04-30T00:47:00.553Z,0.00
2019-04-30T00:47:57.837Z,0.00
2019-04-30T00:49:08.738Z,0.00
2019-04-30T00:50:00.290Z,0.00
2019-04-30T00:50:57.763Z,0.00
2019-04-30T00:51:58.328Z,0.00
2019-04-30T00:52:57.900Z,0.00
2019-04-30T00:53:57.688Z,0.00
2019-04-30T00:55:00.368Z,0.00
2019-04-30T00:55:57.637Z,0.00
2019-04-30T00:57:03.778Z,0.00
2019-04-30T00:57:57.591Z,0.00
2019-04-30T00:59:02.091Z,0.00
2019-04-30T00:59:58.389Z,0.00
2019-04-30T01:00:59.772Z,0.00
2019-04-30T01:01:57.490Z,0.00
2019-04-30T01:03:00.852Z,0.00
2019-04-30T01:03:57.438Z,0.00
2019-04-30T01:05:00.144Z,0.00
2019-04-30T01:05:57.390Z,0.00
2019-04-30T01:07:00.356Z,0.00
2019-04-30T01:07:57.339Z,0.00
2019-04-30T01:08:58.323Z,0.00
2019-04-30T01:09:57.290Z,0.00
2019-04-30T01:10:59.748Z,0.00
2019-04-30T01:11:57.240Z,0.00
2019-04-30T01:12:59.866Z,0.00
2019-04-30T01:13:58.954Z,0.00
2019-04-30T01:14:59.013Z,0.00
2019-04-30T01:15:58.920Z,0.00
2019-04-30T01:16:59.290Z,0.00
2019-04-30T01:17:57.091Z,0.00
2019-04-30T01:18:58.639Z,0.00
2019-04-30T01:19:57.043Z,0.00
2019-04-30T01:20:58.566Z,0.00
2019-04-30T01:21:56.991Z,0.00
2019-04-30T01:22:58.553Z,0.00
2019-04-30T01:23:59.029Z,0.00
2019-04-30T01:25:01.355Z,0.00
2019-04-30T01:25:58.478Z,0.00
2019-04-30T01:27:02.095Z,0.00
2019-04-30T01:27:58.510Z,0.00
2019-04-30T01:29:00.581Z,0.00
2019-04-30T01:29:58.428Z,0.00
2019-04-30T01:30:58.761Z,0.00
2019-04-30T01:31:58.537Z,0.00
2019-04-30T01:33:01.015Z,0.00
2019-04-30T01:33:58.885Z,0.00
2019-04-30T01:34:56.666Z,0.00
2019-04-30T01:35:56.642Z,0.00
2019-04-30T01:36:56.620Z,0.00
2019-04-30T01:37:56.593Z,0.00
2019-04-30T01:38:56.567Z,0.00
2019-04-30T01:39:56.544Z,0.00
2019-04-30T01:40:56.517Z,0.00
2019-04-30T01:41:56.491Z,0.00
2019-04-30T01:42:56.467Z,0.00
2019-04-30T01:43:58.402Z,0.00
2019-04-30T01:44:56.417Z,0.00
2019-04-30T01:45:56.397Z,0.00
2019-04-30T01:46:56.367Z,0.00
2019-04-30T01:48:00.666Z,0.00
2019-04-30T01:48:56.316Z,0.00
2019-04-30T01:50:01.028Z,0.00
2019-04-30T01:50:56.267Z,0.00
2019-04-30T01:51:57.290Z,0.00
2019-04-30T01:52:56.217Z,0.00
2019-04-30T01:53:56.192Z,0.00
2019-04-30T01:54:56.166Z,0.00
2019-04-30T01:55:56.142Z,0.00
2019-04-30T01:56:56.119Z,0.00
2019-04-30T01:57:56.094Z,0.00
2019-04-30T01:58:56.068Z,0.00
2019-04-30T01:59:56.044Z,0.00
2019-04-30T02:00:56.018Z,0.00
2019-04-30T02:01:55.992Z,0.00
2019-04-30T02:02:55.968Z,0.00
2019-04-30T02:03:55.942Z,0.00
2019-04-30T02:04:55.917Z,0.00
2019-04-30T02:05:55.892Z,0.00
2019-04-30T02:06:55.888Z,0.00
2019-04-30T02:07:55.842Z,0.00
2019-04-30T02:08:55.817Z,0.00
2019-04-30T02:09:55.792Z,0.00
2019-04-30T02:10:55.767Z,0.00
2019-04-30T02:11:55.743Z,0.00
2019-04-30T02:12:55.717Z,0.00
2019-04-30T02:13:55.693Z,0.00
2019-04-30T02:14:55.668Z,0.00
2019-04-30T02:15:55.642Z,0.00
2019-04-30T02:16:55.617Z,0.00
2019-04-30T02:17:55.594Z,0.00
2019-04-30T02:18:55.568Z,0.00
2019-04-30T02:19:56.895Z,0.00
2019-04-30T02:20:55.517Z,0.00
2019-04-30T02:21:56.243Z,0.00
2019-04-30T02:22:55.467Z,0.00
2019-04-30T02:23:55.440Z,0.00
2019-04-30T02:24:55.417Z,0.00
2019-04-30T02:25:55.392Z,0.00
2019-04-30T02:26:55.366Z,0.00
2019-04-30T02:27:55.348Z,0.00
2019-04-30T02:28:55.319Z,0.00
2019-04-30T02:29:55.292Z,0.00
2019-04-30T02:30:55.273Z,0.00
2019-04-30T02:31:55.242Z,0.00
2019-04-30T02:32:55.218Z,0.00
2019-04-30T02:33:55.194Z,0.00
2019-04-30T02:34:55.169Z,0.00
2019-04-30T02:35:55.143Z,0.00
2019-04-30T02:36:55.122Z,0.00
2019-04-30T02:37:55.093Z,0.00
2019-04-30T02:38:55.068Z,0.00
2019-04-30T02:39:55.043Z,0.00
2019-04-30T02:40:55.024Z,0.00
2019-04-30T02:41:54.994Z,0.00
2019-04-30T02:42:57.849Z,0.00
2019-04-30T02:43:54.944Z,0.00
2019-04-30T02:44:54.918Z,0.00
2019-04-30T02:45:54.894Z,0.00
2019-04-30T02:46:54.867Z,0.00
2019-04-30T02:47:54.850Z,0.00
2019-04-30T02:48:54.817Z,0.00
2019-04-30T02:50:10.250Z,0.00
2019-04-30T02:50:54.766Z,0.00
2019-04-30T02:51:54.744Z,0.00
2019-04-30T02:52:54.718Z,0.00
2019-04-30T02:53:54.694Z,0.00
2019-04-30T02:54:54.667Z,0.00
2019-04-30T02:55:54.643Z,0.00
2019-04-30T02:56:54.624Z,0.00
2019-04-30T02:57:54.592Z,0.00
2019-04-30T02:58:54.567Z,0.00
2019-04-30T02:59:54.541Z,0.00
2019-04-30T03:00:54.517Z,0.00
2019-04-30T03:01:54.493Z,0.00
2019-04-30T03:02:54.467Z,0.00
2019-04-30T03:03:54.446Z,4.00
2019-04-30T03:04:54.418Z,0.00
2019-04-30T03:05:54.393Z,0.00
2019-04-30T03:06:54.368Z,0.00
2019-04-30T03:07:54.343Z,0.00
2019-04-30T03:08:54.317Z,0.00
2019-04-30T03:09:54.300Z,0.00
2019-04-30T03:10:54.266Z,0.00
2019-04-30T03:11:54.246Z,0.00
2019-04-30T03:12:54.217Z,0.00
2019-04-30T03:13:54.191Z,0.00
2019-04-30T03:14:54.198Z,0.00
2019-04-30T03:15:54.141Z,0.00
2019-04-30T03:16:54.117Z,0.00
2019-04-30T03:17:54.098Z,0.00
2019-04-30T03:18:54.068Z,0.00
2019-04-30T03:19:54.040Z,0.00
2019-04-30T03:20:54.017Z,0.00
2019-04-30T03:21:53.995Z,0.00
2019-04-30T03:22:53.967Z,0.00
2019-04-30T03:23:53.944Z,0.00
2019-04-30T03:24:56.168Z,0.00
2019-04-30T03:25:53.892Z,0.00
2019-04-30T03:26:53.866Z,4.00
2019-04-30T03:27:53.842Z,0.00
2019-04-30T03:28:53.817Z,4.00
2019-04-30T03:29:53.797Z,4.00
2019-04-30T03:30:57.836Z,4.00
2019-04-30T03:31:53.743Z,4.00
2019-04-30T03:32:56.752Z,4.00
2019-04-30T03:33:53.692Z,4.00
2019-04-30T03:34:53.666Z,4.00
2019-04-30T03:35:54.814Z,4.00
2019-04-30T03:36:53.616Z,4.00
2019-04-30T03:37:53.592Z,4.00
2019-04-30T03:38:53.570Z,4.00
2019-04-30T03:39:53.540Z,4.00
2019-04-30T03:40:53.517Z,4.00
2019-04-30T03:41:53.490Z,4.00
2019-04-30T03:42:53.465Z,4.00
2019-04-30T03:43:53.441Z,4.00
2019-04-30T03:44:53.415Z,4.00
2019-04-30T03:45:53.396Z,4.00
2019-04-30T03:46:53.366Z,4.00
2019-04-30T03:47:53.340Z,0.00
2019-04-30T03:48:53.320Z,4.00
2019-04-30T03:49:53.295Z,4.00
2019-04-30T03:50:56.965Z,4.00
2019-04-30T03:51:53.240Z,4.00
2019-04-30T03:52:53.219Z,4.00
2019-04-30T03:53:53.190Z,4.00
2019-04-30T03:54:53.176Z,4.00
2019-04-30T03:55:53.140Z,8.00
2019-04-30T03:56:53.122Z,4.00
2019-04-30T03:57:53.091Z,8.00
2019-04-30T03:58:53.065Z,8.00
2019-04-30T03:59:53.040Z,12.00
2019-04-30T04:00:53.014Z,12.00
2019-04-30T04:01:52.990Z,12.00
2019-04-30T04:02:52.967Z,12.00
2019-04-30T04:03:52.939Z,12.00
2019-04-30T04:04:52.955Z,16.00
2019-04-30T04:05:52.889Z,20.00
2019-04-30T04:06:52.869Z,20.00
2019-04-30T04:07:53.273Z,28.00
2019-04-30T04:08:52.815Z,32.00
2019-04-30T04:09:52.791Z,40.00
2019-04-30T04:10:53.192Z,40.00
2019-04-30T04:11:52.738Z,48.00
2019-04-30T04:12:52.713Z,52.00
2019-04-30T04:13:52.690Z,60.00
2019-04-30T04:14:52.667Z,64.00
2019-04-30T04:15:52.654Z,64.00
2019-04-30T04:16:52.617Z,64.00
2019-04-30T04:17:52.596Z,60.00
2019-04-30T04:18:52.567Z,64.00
2019-04-30T04:19:52.538Z,72.00
2019-04-30T04:21:07.482Z,88.00
2019-04-30T04:21:52.492Z,96.00
2019-04-30T04:22:52.462Z,104.00
2019-04-30T04:23:52.439Z,108.00
2019-04-30T04:24:52.433Z,108.00
2019-04-30T04:25:52.390Z,112.00
2019-04-30T04:26:52.362Z,112.00
2019-04-30T04:27:52.337Z,120.00
2019-04-30T04:28:52.315Z,132.00
2019-04-30T04:29:52.288Z,144.00
2019-04-30T04:30:53.012Z,160.00
2019-04-30T04:31:52.239Z,176.00
2019-04-30T04:32:52.212Z,200.00
2019-04-30T04:33:52.725Z,220.00
2019-04-30T04:34:52.161Z,244.00
2019-04-30T04:35:52.137Z,252.00
2019-04-30T04:36:52.113Z,256.00
2019-04-30T04:37:52.086Z,260.00
2019-04-30T04:38:52.070Z,276.00
2019-04-30T04:39:52.041Z,300.00
2019-04-30T04:40:52.016Z,332.00
2019-04-30T04:41:51.988Z,364.00
2019-04-30T04:42:51.965Z,396.00
2019-04-30T04:43:51.936Z,420.00
2019-04-30T04:44:51.913Z,432.00
2019-04-30T04:45:51.887Z,420.00
2019-04-30T04:46:51.886Z,384.00
2019-04-30T04:47:51.837Z,348.00
2019-04-30T04:48:51.812Z,312.00
2019-04-30T04:49:53.874Z,276.00
2019-04-30T04:50:51.793Z,252.00
2019-04-30T04:51:51.738Z,240.00
2019-04-30T04:52:51.711Z,244.00
2019-04-30T04:53:51.686Z,248.00
2019-04-30T04:54:51.671Z,256.00
2019-04-30T04:55:51.639Z,256.00
2019-04-30T04:56:54.808Z,256.00
2019-04-30T04:57:51.588Z,256.00
2019-04-30T04:58:51.568Z,256.00
2019-04-30T04:59:51.537Z,260.00
2019-04-30T05:00:51.514Z,268.00
2019-04-30T05:01:51.496Z,276.00
2019-04-30T05:02:51.461Z,284.00
2019-04-30T05:03:51.440Z,296.00
2019-04-30T05:04:51.413Z,308.00
2019-04-30T05:05:51.387Z,328.00
2019-04-30T05:06:51.362Z,348.00
2019-04-30T05:07:51.336Z,372.00
2019-04-30T05:08:51.317Z,400.00
2019-04-30T05:09:51.294Z,420.00
2019-04-30T05:10:51.261Z,440.00
2019-04-30T05:11:51.260Z,468.00
2019-04-30T05:12:51.212Z,512.00
2019-04-30T05:13:51.187Z,564.00
2019-04-30T05:14:51.161Z,616.00
2019-04-30T05:15:51.639Z,676.00
2019-04-30T05:16:51.112Z,728.00
2019-04-30T05:17:51.088Z,760.00
2019-04-30T05:18:51.062Z,772.00
2019-04-30T05:19:51.038Z,776.00
2019-04-30T05:20:51.015Z,792.00
2019-04-30T05:21:51.719Z,832.00
2019-04-30T05:22:50.962Z,876.00
2019-04-30T05:23:50.940Z,920.00
2019-04-30T05:24:50.913Z,960.00
2019-04-30T05:25:50.889Z,1004.00
2019-04-30T05:26:50.870Z,1044.00
2019-04-30T05:27:50.837Z,1100.00
2019-04-30T05:28:52.893Z,1156.00
2019-04-30T05:29:50.788Z,1212.00
2019-04-30T05:30:50.763Z,1272.00
2019-04-30T05:31:50.738Z,1336.00
2019-04-30T05:32:50.972Z,1424.00
2019-04-30T05:33:50.689Z,1520.00
2019-04-30T05:34:50.663Z,1624.00
2019-04-30T05:35:53.641Z,1720.00
2019-04-30T05:36:50.614Z,1792.00
2019-04-30T05:37:50.589Z,1848.00
2019-04-30T05:38:50.565Z,1900.00
2019-04-30T05:39:50.539Z,1956.00
2019-04-30T05:40:50.514Z,1992.00
2019-04-30T05:41:50.489Z,1984.00
2019-04-30T05:42:50.467Z,1948.00
2019-04-30T05:43:50.443Z,1896.00
2019-04-30T05:44:50.417Z,1832.00
2019-04-30T05:45:50.391Z,1792.00
2019-04-30T05:46:50.383Z,1828.00
2019-04-30T05:47:50.644Z,1952.00
2019-04-30T05:48:50.315Z,2136.00
2019-04-30T05:49:50.292Z,2340.00
2019-04-30T05:50:51.767Z,2512.00
2019-04-30T05:51:55.350Z,2648.00
2019-04-30T05:52:50.967Z,2752.00
2019-04-30T05:53:50.193Z,2844.00
2019-04-30T05:54:50.167Z,2884.00
2019-04-30T05:55:50.144Z,2880.00
2019-04-30T05:56:50.119Z,2888.00
2019-04-30T05:57:55.860Z,2908.00
2019-04-30T05:58:50.069Z,2932.00
2019-04-30T05:59:50.045Z,2944.00
2019-04-30T06:00:50.113Z,2988.00
2019-04-30T06:01:50.804Z,3064.00
2019-04-30T06:02:49.974Z,3208.00
2019-04-30T06:03:49.946Z,3468.00
2019-04-30T06:04:49.929Z,3784.00
2019-04-30T06:05:49.898Z,4028.00
2019-04-30T06:06:49.873Z,4192.00
2019-04-30T06:07:52.069Z,4260.00
2019-04-30T06:08:49.874Z,4256.00
2019-04-30T06:09:49.801Z,4196.00
2019-04-30T06:10:51.814Z,4068.00
2019-04-30T06:11:49.752Z,3908.00
2019-04-30T06:12:49.729Z,3772.00
2019-04-30T06:13:49.704Z,3688.00
2019-04-30T06:14:51.734Z,3676.00
2019-04-30T06:15:49.654Z,3688.00
2019-04-30T06:16:51.731Z,3696.00
2019-04-30T06:17:59.628Z,3668.00
2019-04-30T06:18:49.581Z,3520.00
2019-04-30T06:19:51.494Z,3280.00
2019-04-30T06:20:49.533Z,3104.00
2019-04-30T06:21:49.509Z,3032.00
2019-04-30T06:22:52.085Z,2980.00
2019-04-30T06:23:49.461Z,2972.00
2019-04-30T06:24:49.600Z,3080.00
2019-04-30T06:25:58.411Z,3288.00
2019-04-30T06:26:49.442Z,3500.00
2019-04-30T06:27:49.365Z,3712.00
2019-04-30T06:28:49.732Z,3964.00
2019-04-30T06:29:49.316Z,4068.00
2019-04-30T06:30:50.792Z,4056.00
2019-04-30T06:31:49.267Z,4024.00
2019-04-30T06:32:49.685Z,4028.00
2019-04-30T06:33:49.219Z,4132.00
2019-04-30T06:34:49.879Z,4272.00
2019-04-30T06:35:49.384Z,4484.00
2019-04-30T06:36:53.362Z,4764.00
2019-04-30T06:37:49.122Z,4944.00
2019-04-30T06:38:49.110Z,5008.00
2019-04-30T06:39:50.076Z,4988.00
2019-04-30T06:40:49.054Z,4876.00
2019-04-30T06:41:49.388Z,4836.00
2019-04-30T06:42:49.513Z,5012.00
2019-04-30T06:43:48.978Z,5312.00
2019-04-30T06:44:49.532Z,5584.00
2019-04-30T06:45:51.280Z,5896.00
2019-04-30T06:46:48.906Z,6176.00
2019-04-30T06:47:49.079Z,6376.00
2019-04-30T06:48:50.872Z,6568.00
2019-04-30T06:49:48.979Z,6736.00
2019-04-30T06:50:49.347Z,6764.00
2019-04-30T06:51:49.248Z,6728.00
2019-04-30T06:52:56.641Z,6788.00
2019-04-30T06:53:49.510Z,6768.00
2019-04-30T06:54:49.849Z,6352.00
2019-04-30T06:55:49.256Z,5544.00
2019-04-30T06:56:48.668Z,4812.00
2019-04-30T06:57:49.646Z,4412.00
2019-04-30T06:58:49.667Z,4184.00
2019-04-30T06:59:51.189Z,4068.00
2019-04-30T07:00:49.626Z,4012.00
2019-04-30T07:01:49.016Z,4004.00
2019-04-30T07:02:49.447Z,4060.00
2019-04-30T07:03:48.812Z,4236.00
2019-04-30T07:04:49.101Z,4428.00
2019-04-30T07:05:48.892Z,4640.00
2019-04-30T07:06:50.521Z,4996.00
2019-04-30T07:07:48.869Z,5404.00
2019-04-30T07:08:55.672Z,5772.00
2019-04-30T07:09:53.100Z,6220.00
2019-04-30T07:10:55.638Z,6700.00
2019-04-30T07:11:49.372Z,7092.00
2019-04-30T07:12:49.114Z,7380.00
2019-04-30T07:13:49.511Z,7384.00
2019-04-30T07:14:49.477Z,7076.00
2019-04-30T07:15:49.007Z,6660.00
2019-04-30T07:16:49.455Z,6432.00
2019-04-30T07:17:49.146Z,6380.00
2019-04-30T07:18:48.881Z,6556.00
2019-04-30T07:19:54.240Z,6936.00
2019-04-30T07:20:48.637Z,7484.00
2019-04-30T07:21:49.577Z,8056.00
2019-04-30T07:23:48.564Z,8704.00
2019-04-30T07:24:49.684Z,8880.00
2019-04-30T07:25:49.297Z,8868.00
2019-04-30T07:26:48.946Z,8952.00
2019-04-30T07:27:50.496Z,9212.00
2019-04-30T07:28:52.728Z,9076.00
2019-04-30T07:29:49.550Z,8628.00
2019-04-30T07:30:51.216Z,8432.00
2019-04-30T07:31:49.023Z,8460.00
2019-04-30T07:32:48.759Z,8776.00
2019-04-30T07:33:52.940Z,9088.00
2019-04-30T07:34:49.478Z,9332.00
2019-04-30T07:35:49.829Z,9584.00
2019-04-30T07:36:55.161Z,9892.00
2019-04-30T07:37:49.486Z,10364.00
2019-04-30T07:38:55.407Z,10984.00
2019-04-30T07:39:49.399Z,12008.00
2019-04-30T07:40:49.291Z,12176.00
2019-04-30T07:41:49.456Z,11648.00
2019-04-30T07:42:49.231Z,11656.00
2019-04-30T07:43:49.348Z,11972.00
2019-04-30T07:44:50.057Z,11720.00
2019-04-30T07:45:49.612Z,11300.00
2019-04-30T07:46:49.237Z,11200.00
2019-04-30T07:47:49.478Z,10360.00
2019-04-30T07:48:49.940Z,9812.00
2019-04-30T07:49:52.975Z,9840.00
2019-04-30T07:50:51.566Z,10104.00
2019-04-30T07:51:49.062Z,10320.00
2019-04-30T07:53:00.661Z,10224.00
2019-04-30T07:53:49.556Z,10392.00
2019-04-30T07:54:51.591Z,11704.00
2019-04-30T07:55:49.425Z,13260.00
2019-04-30T07:56:47.301Z,13396.00
2019-04-30T07:57:50.120Z,12752.00
2019-04-30T07:58:47.239Z,12088.00
2019-04-30T07:59:47.217Z,12208.00
2019-04-30T08:00:49.563Z,12088.00
2019-04-30T08:02:03.234Z,12028.00
2019-04-30T08:02:50.311Z,12004.00
2019-04-30T08:03:49.792Z,11988.00
2019-04-30T08:04:47.108Z,11988.00
2019-04-30T08:05:49.605Z,11336.00
2019-04-30T08:06:47.097Z,11140.00
2019-04-30T08:07:48.973Z,11028.00
2019-04-30T08:08:47.060Z,10816.00
2019-04-30T08:09:36.926Z,8428.00
2019-04-30T08:09:48.903Z,10772.00
2019-04-30T08:10:46.978Z,10552.00
2019-04-30T08:11:49.041Z,10340.00
2019-04-30T08:12:49.840Z,10272.00
2019-04-30T08:13:49.265Z,10276.00
2019-04-30T08:14:46.890Z,10196.00
2019-04-30T08:15:46.870Z,10136.00
2019-04-30T08:16:48.451Z,10176.00
2019-04-30T08:18:00.053Z,10232.00
2019-04-30T08:18:46.804Z,10176.00
2019-04-30T08:19:48.847Z,10064.00
2019-04-30T08:20:48.889Z,9832.00
2019-04-30T08:21:48.504Z,9388.00
2019-04-30T08:22:46.718Z,8708.00
2019-04-30T08:23:48.807Z,7884.00
2019-04-30T08:24:46.675Z,7500.00
2019-04-30T08:25:48.839Z,7648.00
2019-04-30T08:26:46.633Z,7896.00
2019-04-30T08:27:46.610Z,7936.00
2019-04-30T08:28:48.606Z,7744.00
2019-04-30T08:29:46.567Z,7552.00
2019-04-30T08:30:46.546Z,7484.00
2019-04-30T08:31:46.525Z,7556.00
2019-04-30T08:32:46.501Z,7704.00
2019-04-30T08:33:46.484Z,8032.00
2019-04-30T08:34:46.459Z,8488.00
2019-04-30T08:35:46.436Z,9032.00
2019-04-30T08:36:46.416Z,9492.00
2019-04-30T08:37:46.393Z,9716.00
2019-04-30T08:38:46.372Z,9716.00
2019-04-30T08:39:46.347Z,9252.00
2019-04-30T08:40:55.536Z,8908.00
2019-04-30T08:41:46.306Z,8384.00
2019-04-30T08:42:46.282Z,7944.00
2019-04-30T08:43:46.260Z,7680.00
2019-04-30T08:44:46.244Z,7632.00
2019-04-30T08:45:46.217Z,7696.00
2019-04-30T08:46:46.194Z,7796.00
2019-04-30T08:47:49.304Z,7752.00
2019-04-30T08:48:53.039Z,7644.00
2019-04-30T08:49:46.399Z,7412.00
2019-04-30T08:50:46.106Z,7268.00
2019-04-30T08:51:46.101Z,7256.00
2019-04-30T08:52:46.117Z,7092.00
2019-04-30T08:53:48.478Z,7088.00
2019-04-30T08:54:46.019Z,7284.00
2019-04-30T08:55:45.997Z,7696.00
2019-04-30T08:56:45.975Z,8044.00
2019-04-30T08:57:45.953Z,8276.00
2019-04-30T08:58:45.930Z,8508.00
2019-04-30T08:59:45.909Z,8660.00
2019-04-30T09:00:45.889Z,8684.00
2019-04-30T09:01:45.865Z,8748.00
2019-04-30T09:02:45.850Z,8808.00
2019-04-30T09:03:45.821Z,8912.00
2019-04-30T09:04:45.900Z,9100.00
2019-04-30T09:05:45.779Z,9440.00
2019-04-30T09:06:45.821Z,9808.00
2019-04-30T09:07:45.733Z,10208.00
2019-04-30T09:08:45.715Z,10644.00
2019-04-30T09:09:45.691Z,11076.00
2019-04-30T09:10:45.666Z,11408.00
2019-04-30T09:11:53.052Z,11520.00
2019-04-30T09:12:45.624Z,11356.00
2019-04-30T09:13:45.609Z,11044.00
2019-04-30T09:14:45.579Z,10828.00
2019-04-30T09:15:45.558Z,10792.00
2019-04-30T09:16:45.619Z,10888.00
2019-04-30T09:17:58.868Z,10860.00
2019-04-30T09:18:45.493Z,10700.00
2019-04-30T09:19:45.471Z,10588.00
2019-04-30T09:20:45.451Z,10564.00
2019-04-30T09:21:45.428Z,10580.00
2019-04-30T09:22:45.405Z,10632.00
2019-04-30T09:23:51.848Z,10640.00
2019-04-30T09:24:45.364Z,10600.00
2019-04-30T09:25:45.342Z,10672.00
2019-04-30T09:26:45.320Z,10936.00
2019-04-30T09:27:45.297Z,11356.00
2019-04-30T09:28:45.276Z,12028.00
2019-04-30T09:29:45.254Z,12864.00
2019-04-30T09:30:45.234Z,13696.00
2019-04-30T09:31:45.211Z,14272.00
2019-04-30T09:32:45.190Z,14520.00
2019-04-30T09:33:45.174Z,14444.00
2019-04-30T09:34:45.148Z,14168.00
2019-04-30T09:35:45.125Z,13916.00
2019-04-30T09:36:45.104Z,13856.00
2019-04-30T09:37:45.086Z,14084.00
2019-04-30T09:38:45.061Z,14232.00
2019-04-30T09:39:45.041Z,14248.00
2019-04-30T09:40:45.029Z,14292.00
2019-04-30T09:41:47.251Z,14484.00
2019-04-30T09:42:44.975Z,14712.00
2019-04-30T09:43:44.956Z,14592.00
2019-04-30T09:44:44.932Z,14180.00
2019-04-30T09:45:44.911Z,13868.00
2019-04-30T09:46:44.888Z,13856.00
2019-04-30T09:47:47.121Z,14164.00
2019-04-30T09:48:44.846Z,15176.00
2019-04-30T09:49:44.826Z,13508.00
2019-04-30T09:50:45.054Z,12912.00
2019-04-30T09:51:44.782Z,11516.00
2019-04-30T09:52:45.027Z,9948.00
2019-04-30T09:53:55.707Z,9028.00
2019-04-30T09:54:44.719Z,8680.00
2019-04-30T09:55:44.696Z,8524.00
2019-04-30T09:56:44.677Z,8368.00
2019-04-30T09:57:44.653Z,8012.00
2019-04-30T09:58:44.631Z,7708.00
2019-04-30T09:59:44.610Z,7468.00
2019-04-30T10:00:44.588Z,7132.00
2019-04-30T10:01:44.570Z,6712.00
2019-04-30T10:02:44.549Z,6368.00
2019-04-30T10:03:44.876Z,6132.00
2019-04-30T10:04:44.988Z,6004.00
2019-04-30T10:05:44.480Z,5944.00
2019-04-30T10:06:44.462Z,5904.00
2019-04-30T10:07:44.436Z,5852.00
2019-04-30T10:08:48.437Z,5812.00
2019-04-30T10:09:44.393Z,5820.00
2019-04-30T10:10:44.370Z,5820.00
2019-04-30T10:11:44.349Z,5820.00
2019-04-30T10:12:44.327Z,5804.00
2019-04-30T10:13:44.305Z,5780.00
2019-04-30T10:14:44.283Z,5740.00
2019-04-30T10:15:44.260Z,5676.00
2019-04-30T10:16:44.241Z,5628.00
2019-04-30T10:17:44.217Z,5592.00
2019-04-30T10:18:44.195Z,5612.00
2019-04-30T10:19:44.173Z,5748.00
2019-04-30T10:20:44.151Z,5984.00
2019-04-30T10:21:44.130Z,6296.00
2019-04-30T10:22:44.107Z,6644.00
2019-04-30T10:23:44.085Z,7008.00
2019-04-30T10:24:44.066Z,7380.00
2019-04-30T10:25:44.041Z,7700.00
2019-04-30T10:26:44.020Z,8000.00
2019-04-30T10:27:43.999Z,8184.00
2019-04-30T10:28:43.979Z,8236.00
2019-04-30T10:29:43.954Z,8180.00
2019-04-30T10:30:43.931Z,8180.00
2019-04-30T10:31:43.909Z,8200.00
2019-04-30T10:32:43.887Z,8216.00
2019-04-30T10:33:43.872Z,8292.00
2019-04-30T10:34:43.843Z,8512.00
2019-04-30T10:35:43.821Z,8952.00
2019-04-30T10:36:43.799Z,9636.00
2019-04-30T10:37:43.777Z,10500.00
2019-04-30T10:38:43.755Z,11084.00
2019-04-30T10:39:43.734Z,11116.00
2019-04-30T10:40:43.727Z,10800.00
2019-04-30T10:41:43.690Z,10408.00
2019-04-30T10:42:43.666Z,10040.00
2019-04-30T10:43:43.647Z,9960.00
2019-04-30T10:44:43.624Z,10004.00
2019-04-30T10:45:43.602Z,9828.00
2019-04-30T10:46:43.580Z,9388.00
2019-04-30T10:47:43.558Z,8956.00
2019-04-30T10:48:43.538Z,8732.00
2019-04-30T10:49:43.521Z,8860.00
2019-04-30T10:50:43.493Z,9084.00
2019-04-30T10:51:43.470Z,9256.00
2019-04-30T10:52:46.452Z,9256.00
2019-04-30T10:53:43.427Z,9172.00
2019-04-30T10:54:43.407Z,9244.00
2019-04-30T10:55:43.383Z,9616.00
2019-04-30T10:56:43.362Z,10052.00
2019-04-30T10:57:43.340Z,10276.00
2019-04-30T10:58:45.585Z,10124.00
2019-04-30T10:59:43.296Z,9760.00
2019-04-30T11:00:43.276Z,9500.00
2019-04-30T11:01:43.253Z,9304.00
2019-04-30T11:02:43.232Z,9088.00
2019-04-30T11:03:43.213Z,8824.00
2019-04-30T11:04:46.942Z,8636.00
2019-04-30T11:05:43.167Z,8660.00
2019-04-30T11:06:43.144Z,8860.00
2019-04-30T11:07:43.124Z,9184.00
2019-04-30T11:08:43.103Z,9604.00
2019-04-30T11:09:43.082Z,10068.00
2019-04-30T11:10:43.058Z,10452.00
2019-04-30T11:11:43.038Z,10684.00
2019-04-30T11:12:43.016Z,10644.00
2019-04-30T11:13:42.996Z,10412.00
2019-04-30T11:14:42.974Z,10088.00
2019-04-30T11:15:42.951Z,9820.00
2019-04-30T11:16:43.071Z,9624.00
2019-04-30T11:17:43.105Z,9484.00
2019-04-30T11:18:43.100Z,9332.00
2019-04-30T11:19:43.001Z,9180.00
2019-04-30T11:20:43.002Z,9088.00
2019-04-30T11:21:43.784Z,9068.00
2019-04-30T11:22:42.985Z,9160.00
2019-04-30T11:23:42.976Z,9204.00
2019-04-30T11:24:56.599Z,9144.00
2019-04-30T11:25:43.490Z,9096.00
2019-04-30T11:26:43.557Z,9060.00
2019-04-30T11:27:43.183Z,9032.00
2019-04-30T11:28:42.851Z,9004.00
2019-04-30T11:29:42.891Z,8940.00
2019-04-30T11:30:42.869Z,8876.00
2019-04-30T11:31:42.833Z,8760.00
2019-04-30T11:32:42.808Z,8640.00
2019-04-30T11:33:42.726Z,8480.00
2019-04-30T11:34:42.546Z,8404.00
2019-04-30T11:35:42.520Z,8348.00
2019-04-30T11:36:42.501Z,8364.00
2019-04-30T11:37:42.480Z,8332.00
2019-04-30T11:38:42.456Z,8244.00
2019-04-30T11:39:42.434Z,8124.00
2019-04-30T11:40:42.413Z,7936.00
2019-04-30T11:41:42.392Z,7768.00
2019-04-30T11:42:42.370Z,7656.00
2019-04-30T11:43:42.370Z,7588.00
2019-04-30T11:44:42.327Z,7532.00
2019-04-30T11:45:42.305Z,7508.00
2019-04-30T11:46:42.283Z,7524.00
2019-04-30T11:47:53.044Z,7600.00
2019-04-30T11:48:42.240Z,7740.00
2019-04-30T11:49:42.220Z,7840.00
2019-04-30T11:50:42.197Z,7784.00
2019-04-30T11:51:42.175Z,7708.00
2019-04-30T11:52:42.154Z,7716.00
2019-04-30T11:53:42.133Z,7796.00
2019-04-30T11:54:48.950Z,7804.00
2019-04-30T11:55:42.089Z,7612.00
2019-04-30T11:56:42.068Z,7436.00
2019-04-30T11:57:42.047Z,7428.00
2019-04-30T11:58:42.025Z,7556.00
2019-04-30T11:59:42.006Z,7544.00
2019-04-30T12:00:41.983Z,7448.00
2019-04-30T12:01:41.961Z,7432.00
2019-04-30T12:02:41.940Z,7472.00
2019-04-30T12:03:41.916Z,7520.00
2019-04-30T12:04:41.894Z,7556.00
2019-04-30T12:05:41.873Z,7544.00
2019-04-30T12:06:41.851Z,7616.00
2019-04-30T12:07:41.831Z,7688.00
2019-04-30T12:08:41.808Z,7764.00
2019-04-30T12:09:41.786Z,7844.00
2019-04-30T12:10:41.764Z,7948.00
2019-04-30T12:11:41.749Z,8204.00
2019-04-30T12:12:41.721Z,8448.00
2019-04-30T12:13:41.699Z,8648.00
2019-04-30T12:14:41.677Z,8784.00
2019-04-30T12:15:41.656Z,8912.00
2019-04-30T12:16:41.634Z,9144.00
2019-04-30T12:17:41.613Z,9456.00
2019-04-30T12:18:41.590Z,9784.00
2019-04-30T12:19:41.570Z,10192.00
2019-04-30T12:20:41.598Z,10512.00
2019-04-30T12:21:41.526Z,10632.00
2019-04-30T12:22:41.517Z,10596.00
2019-04-30T12:23:41.484Z,10556.00
2019-04-30T12:24:41.462Z,10656.00
2019-04-30T12:25:41.444Z,10820.00
2019-04-30T12:26:41.422Z,10980.00
2019-04-30T12:27:41.399Z,11244.00